createdAt,value
2023-12-09T00:02:01.103Z,6.10
2023-12-09T00:07:22.979Z,6.16
2023-12-09T00:12:44.760Z,6.05
2023-12-09T00:18:06.653Z,5.95
2023-12-09T00:23:28.528Z,5.93
2023-12-09T00:28:51.733Z,5.89
2023-12-09T00:34:13.637Z,5.86
2023-12-09T00:39:35.485Z,5.84
2023-12-09T00:44:57.329Z,5.83
2023-12-09T00:50:19.164Z,5.85
2023-12-09T00:55:40.994Z,5.81
2023-12-09T01:01:02.948Z,5.78
2023-12-09T01:06:25.031Z,5.72
2023-12-09T01:11:47.020Z,5.70
2023-12-09T01:17:08.922Z,5.74
2023-12-09T01:22:30.701Z,5.76
2023-12-09T01:27:53.588Z,5.83
2023-12-09T01:33:15.594Z,5.83
2023-12-09T01:38:37.506Z,5.83
2023-12-09T01:43:59.358Z,5.82
2023-12-09T01:49:21.431Z,5.80
2023-12-09T01:54:43.408Z,5.72
2023-12-09T02:00:05.962Z,5.70
2023-12-09T02:05:28.046Z,5.68
2023-12-09T02:10:59.140Z,5.64
2023-12-09T02:16:31.349Z,5.64
2023-12-09T02:22:07.774Z,5.64
2023-12-09T02:27:40.097Z,5.66
2023-12-09T02:33:06.803Z,5.67
2023-12-09T02:38:29.640Z,5.69
2023-12-09T02:43:51.622Z,5.67
2023-12-09T02:49:13.484Z,5.66
2023-12-09T02:54:35.385Z,5.66
2023-12-09T02:59:57.271Z,5.61
2023-12-09T03:05:19.214Z,5.57
2023-12-09T03:10:41.062Z,5.60
2023-12-09T03:16:02.890Z,5.52
2023-12-09T03:21:24.715Z,5.45
2023-12-09T03:26:53.019Z,5.35
2023-12-09T03:32:14.913Z,5.35
2023-12-09T03:37:36.728Z,5.38
2023-12-09T03:42:58.598Z,5.36
2023-12-09T03:48:20.542Z,5.36
2023-12-09T03:53:42.995Z,5.23
2023-12-09T03:59:04.849Z,5.14
2023-12-09T04:04:26.663Z,5.04
2023-12-09T04:09:48.555Z,4.91
2023-12-09T04:15:13.451Z,4.75
2023-12-09T04:20:35.289Z,4.59
2023-12-09T04:25:57.123Z,4.47
2023-12-09T04:31:18.987Z,4.41
2023-12-09T04:36:40.860Z,4.31
2023-12-09T04:42:02.931Z,4.36
2023-12-09T04:47:25.471Z,4.41
2023-12-09T04:52:47.739Z,4.46
2023-12-09T04:58:09.597Z,4.50
2023-12-09T05:03:31.885Z,4.53
2023-12-09T05:08:55.953Z,4.55
2023-12-09T05:14:19.239Z,4.59
2023-12-09T05:19:41.375Z,4.63
2023-12-09T05:25:03.611Z,4.70
2023-12-09T05:30:25.494Z,4.76
2023-12-09T05:35:47.296Z,4.80
2023-12-09T05:41:09.863Z,4.82
2023-12-09T05:46:31.709Z,4.84
2023-12-09T05:51:53.549Z,4.85
2023-12-09T05:57:15.518Z,4.86
2023-12-09T06:02:37.602Z,4.91
2023-12-09T06:07:59.488Z,4.92
2023-12-09T06:13:21.378Z,4.96
2023-12-09T06:18:43.367Z,4.95
2023-12-09T06:24:05.687Z,5.00
2023-12-09T06:29:29.610Z,5.00
2023-12-09T06:34:51.950Z,5.06
2023-12-09T06:40:14.021Z,5.55
2023-12-09T06:45:36.144Z,5.93
2023-12-09T06:50:58.333Z,6.10
2023-12-09T06:56:23.960Z,6.13
2023-12-09T07:01:45.900Z,6.22
2023-12-09T07:07:13.616Z,6.07
2023-12-09T07:12:40.354Z,6.09
2023-12-09T07:18:02.469Z,6.03
2023-12-09T07:23:24.422Z,5.94
2023-12-09T07:28:46.381Z,5.89
2023-12-09T07:34:08.514Z,5.83
2023-12-09T07:39:30.425Z,5.76
2023-12-09T07:44:52.251Z,5.74
2023-12-09T07:50:14.334Z,5.76
2023-12-09T07:55:36.249Z,5.78
2023-12-09T08:01:01.265Z,5.76
2023-12-09T08:06:23.369Z,5.84
2023-12-09T08:11:45.343Z,5.95
2023-12-09T08:17:07.254Z,6.10
2023-12-09T08:22:29.260Z,6.11
2023-12-09T08:27:51.252Z,6.22
2023-12-09T08:33:13.449Z,6.18
2023-12-09T08:38:35.697Z,6.16
2023-12-09T08:43:58.170Z,6.31
2023-12-09T08:49:20.131Z,6.63
2023-12-09T08:54:42.103Z,6.79
2023-12-09T09:00:09.243Z,6.79
2023-12-09T09:05:31.370Z,6.83
2023-12-09T09:10:54.000Z,6.96
2023-12-09T09:16:16.371Z,6.78
2023-12-09T09:21:38.436Z,6.86
2023-12-09T09:27:00.335Z,6.94
2023-12-09T09:32:22.738Z,6.86
2023-12-09T09:37:44.602Z,6.90
2023-12-09T09:43:09.798Z,7.22
2023-12-09T09:48:39.302Z,7.31
2023-12-09T09:54:11.674Z,7.26
2023-12-09T09:59:34.272Z,7.41
2023-12-09T10:04:56.407Z,7.37
2023-12-09T10:10:18.994Z,7.31
2023-12-09T10:15:40.989Z,7.19
2023-12-09T10:21:02.930Z,7.30
2023-12-09T10:26:24.876Z,7.42
2023-12-09T10:31:46.989Z,7.50
2023-12-09T10:37:09.743Z,7.81
2023-12-09T10:42:32.065Z,7.86
2023-12-09T10:47:55.217Z,8.24
2023-12-09T10:53:17.273Z,8.35
2023-12-09T10:58:40.476Z,7.91
2023-12-09T11:04:04.939Z,8.30
2023-12-09T11:09:27.338Z,8.54
2023-12-09T11:14:49.180Z,9.13
2023-12-09T11:20:15.042Z,9.73
2023-12-09T11:25:40.712Z,9.57
2023-12-09T11:31:02.741Z,8.59
2023-12-09T11:36:25.791Z,8.40
2023-12-09T11:41:50.583Z,8.49
2023-12-09T11:47:13.474Z,8.35
2023-12-09T11:52:35.659Z,7.99
2023-12-09T11:57:57.540Z,7.85
2023-12-09T12:03:19.544Z,8.00
2023-12-09T12:08:41.744Z,8.11
2023-12-09T12:14:05.676Z,8.03
2023-12-09T12:19:27.842Z,8.13
2023-12-09T12:24:49.769Z,8.07
2023-12-09T12:30:12.194Z,7.95
2023-12-09T12:35:34.197Z,8.07
2023-12-09T12:40:58.126Z,8.16
2023-12-09T12:46:21.140Z,8.50
2023-12-09T12:51:43.041Z,8.97
2023-12-09T12:57:05.391Z,8.44
2023-12-09T13:02:27.442Z,8.14
2023-12-09T13:07:50.181Z,8.14
2023-12-09T13:13:12.170Z,8.21
2023-12-09T13:18:34.172Z,8.05
2023-12-09T13:23:56.139Z,7.99
2023-12-09T13:29:18.096Z,7.79
2023-12-09T13:34:41.061Z,7.68
2023-12-09T13:40:03.743Z,7.58
2023-12-09T13:45:25.959Z,7.61
2023-12-09T13:50:49.634Z,7.48
2023-12-09T13:56:11.533Z,7.38
2023-12-09T14:01:33.476Z,7.33
2023-12-09T14:06:55.369Z,7.29
2023-12-09T14:12:17.312Z,7.29
2023-12-09T14:17:43.057Z,7.29
2023-12-09T14:23:06.033Z,7.32
2023-12-09T14:28:27.880Z,7.28
2023-12-09T14:33:50.063Z,7.34
2023-12-09T14:39:12.207Z,7.32
2023-12-09T14:44:34.166Z,7.33
2023-12-09T14:49:56.179Z,7.23
2023-12-09T14:55:18.191Z,7.08
2023-12-09T15:00:40.311Z,7.06
2023-12-09T15:06:02.780Z,6.94
2023-12-09T15:11:25.752Z,6.85
2023-12-09T15:16:47.886Z,6.84
2023-12-09T15:22:09.837Z,6.83
2023-12-09T15:27:31.772Z,6.80
2023-12-09T15:32:53.781Z,6.72
2023-12-09T15:38:15.792Z,6.78
2023-12-09T15:43:37.641Z,6.74
2023-12-09T15:49:02.001Z,6.72
2023-12-09T15:54:24.111Z,6.65
2023-12-09T15:59:47.615Z,6.49
2023-12-09T16:05:09.585Z,6.46
2023-12-09T16:10:31.397Z,6.27
2023-12-09T16:15:53.423Z,6.32
2023-12-09T16:21:15.429Z,6.19
2023-12-09T16:26:37.397Z,6.14
2023-12-09T16:31:59.233Z,6.19
2023-12-09T16:37:25.157Z,6.15
2023-12-09T16:42:46.999Z,6.17
2023-12-09T16:48:08.992Z,6.18
2023-12-09T16:53:33.602Z,6.21
2023-12-09T16:58:55.516Z,6.21
2023-12-09T17:04:17.513Z,6.20
2023-12-09T17:09:40.133Z,6.15
2023-12-09T17:15:01.983Z,6.11
2023-12-09T17:20:24.254Z,6.15
2023-12-09T17:25:46.193Z,6.16
2023-12-09T17:31:08.295Z,6.22
2023-12-09T17:36:30.246Z,6.15
2023-12-09T17:41:52.184Z,6.17
2023-12-09T17:47:15.406Z,6.26
2023-12-09T17:52:38.097Z,6.29
2023-12-09T17:58:00.338Z,6.37
2023-12-09T18:03:22.286Z,6.37
2023-12-09T18:08:44.259Z,6.36
2023-12-09T18:14:06.247Z,6.48
2023-12-09T18:19:28.259Z,6.57
2023-12-09T18:24:50.346Z,6.66
2023-12-09T18:30:13.049Z,6.63
2023-12-09T18:35:35.055Z,6.47
2023-12-09T18:40:56.944Z,6.44
2023-12-09T18:46:18.839Z,6.52
2023-12-09T18:51:40.724Z,6.52
2023-12-09T18:57:02.756Z,6.50
2023-12-09T19:02:24.651Z,6.75
2023-12-09T19:07:46.498Z,6.73
2023-12-09T19:13:08.685Z,6.77
2023-12-09T19:18:30.684Z,6.94
2023-12-09T19:23:52.669Z,7.10
2023-12-09T19:29:17.286Z,7.09
2023-12-09T19:34:39.498Z,7.18
2023-12-09T19:40:02.612Z,7.23
2023-12-09T19:45:27.496Z,7.29
2023-12-09T19:50:51.776Z,7.37
2023-12-09T19:56:13.778Z,7.25
2023-12-09T20:01:35.627Z,7.26
2023-12-09T20:06:57.585Z,7.36
2023-12-09T20:12:20.052Z,7.40
2023-12-09T20:17:41.955Z,7.41
2023-12-09T20:23:03.986Z,7.36
2023-12-09T20:28:28.520Z,7.42
2023-12-09T20:33:50.681Z,7.55
2023-12-09T20:39:12.959Z,7.63
2023-12-09T20:44:34.844Z,7.69
2023-12-09T20:49:56.828Z,7.66
2023-12-09T20:55:20.481Z,7.70
2023-12-09T21:00:42.443Z,7.67
2023-12-09T21:06:04.600Z,7.65
2023-12-09T21:11:26.695Z,7.59
2023-12-09T21:16:48.525Z,7.63
2023-12-09T21:22:12.563Z,7.67
2023-12-09T21:27:38.079Z,7.71
2023-12-09T21:33:01.142Z,7.71
2023-12-09T21:38:23.069Z,8.00
2023-12-09T21:43:45.002Z,8.14
2023-12-09T21:49:06.994Z,8.17
2023-12-09T21:54:28.886Z,8.26
2023-12-09T21:59:50.763Z,8.28
2023-12-09T22:05:13.932Z,8.31
2023-12-09T22:10:37.761Z,8.28
2023-12-09T22:15:59.621Z,8.31
2023-12-09T22:21:21.753Z,8.30
2023-12-09T22:26:45.003Z,8.22
2023-12-09T22:32:07.478Z,8.18
2023-12-09T22:37:29.352Z,8.08
2023-12-09T22:42:51.291Z,8.15
2023-12-09T22:48:13.542Z,8.14
2023-12-09T22:53:35.540Z,8.15
2023-12-09T22:58:58.741Z,8.39
2023-12-09T23:04:20.589Z,8.78
2023-12-09T23:09:42.532Z,8.91
2023-12-09T23:15:04.902Z,8.92
2023-12-09T23:20:26.781Z,8.92
2023-12-09T23:25:48.617Z,8.86
2023-12-09T23:31:10.550Z,8.91
2023-12-09T23:36:32.493Z,8.87
2023-12-09T23:41:54.318Z,8.88
2023-12-09T23:47:16.206Z,8.98
2023-12-09T23:52:41.029Z,8.91
2023-12-09T23:58:03.070Z,8.74
